createdAt,value
2022-11-22T00:00:42.334Z,10.90
2022-11-22T00:03:11.784Z,12.20
2022-11-22T00:05:38.375Z,11.80
2022-11-22T00:08:05.494Z,11.67
2022-11-22T00:10:32.468Z,11.57
2022-11-22T00:12:59.106Z,11.47
2022-11-22T00:15:25.779Z,10.80
2022-11-22T00:17:52.347Z,11.80
2022-11-22T00:20:19.068Z,12.00
2022-11-22T00:22:45.663Z,10.97
2022-11-22T00:25:13.278Z,10.33
2022-11-22T00:27:40.009Z,12.43
2022-11-22T00:30:07.800Z,10.70
2022-11-22T00:32:34.627Z,12.10
2022-11-22T00:35:01.268Z,11.63
2022-11-22T00:37:27.966Z,12.43
2022-11-22T00:39:54.505Z,12.50
2022-11-22T00:42:21.118Z,11.10
2022-11-22T00:44:47.737Z,10.87
2022-11-22T00:47:14.328Z,10.50
2022-11-22T00:49:41.001Z,11.33
2022-11-22T00:52:07.676Z,10.63
2022-11-22T00:54:34.233Z,11.70
2022-11-22T00:57:00.867Z,11.27
2022-11-22T00:59:27.672Z,10.67
2022-11-22T01:01:55.778Z,11.43
2022-11-22T01:04:24.869Z,10.37
2022-11-22T01:06:51.492Z,10.63
2022-11-22T01:09:22.849Z,11.47
2022-11-22T01:11:50.123Z,11.23
2022-11-22T01:14:17.338Z,10.93
2022-11-22T01:16:44.205Z,10.43
2022-11-22T01:19:11.459Z,11.13
2022-11-22T01:21:38.261Z,10.87
2022-11-22T01:24:05.046Z,10.90
2022-11-22T01:26:33.013Z,10.23
2022-11-22T01:28:59.652Z,10.77
2022-11-22T01:31:26.291Z,10.43
2022-11-22T01:33:52.958Z,10.10
2022-11-22T01:36:19.575Z,9.30
2022-11-22T01:38:47.162Z,9.97
2022-11-22T01:41:13.997Z,10.40
2022-11-22T01:43:40.609Z,9.23
2022-11-22T01:46:19.033Z,9.53
2022-11-22T01:49:05.502Z,9.77
2022-11-22T01:51:38.845Z,9.20
2022-11-22T01:54:09.206Z,9.97
2022-11-22T01:56:36.310Z,9.00
2022-11-22T01:59:06.704Z,10.30
2022-11-22T02:01:33.850Z,9.27
2022-11-22T02:04:04.014Z,9.17
2022-11-22T02:06:46.290Z,9.83
2022-11-22T02:09:13.358Z,9.50
2022-11-22T02:11:50.485Z,8.37
2022-11-22T02:14:19.596Z,9.50
2022-11-22T02:16:48.085Z,8.83
2022-11-22T02:19:40.402Z,9.20
2022-11-22T02:22:18.879Z,9.57
2022-11-22T02:25:08.777Z,9.40
2022-11-22T02:27:35.332Z,9.00
2022-11-22T02:30:01.987Z,9.17
2022-11-22T02:32:28.626Z,9.30
2022-11-22T02:34:55.226Z,9.40
2022-11-22T02:37:27.941Z,8.87
2022-11-22T02:39:58.117Z,8.73
2022-11-22T02:42:26.376Z,9.07
2022-11-22T02:44:52.976Z,8.73
2022-11-22T02:47:19.571Z,9.70
2022-11-22T02:49:46.214Z,8.60
2022-11-22T02:52:19.217Z,8.80
2022-11-22T02:54:46.140Z,8.77
2022-11-22T02:57:13.270Z,9.00
2022-11-22T02:59:39.871Z,8.60
2022-11-22T03:02:06.511Z,8.73
2022-11-22T03:04:33.105Z,8.33
2022-11-22T03:07:00.911Z,8.97
2022-11-22T03:09:27.977Z,8.40
2022-11-22T03:11:54.795Z,9.10
2022-11-22T03:14:21.811Z,8.70
2022-11-22T03:16:48.413Z,8.77
2022-11-22T03:19:17.352Z,9.10
2022-11-22T03:21:44.339Z,8.53
2022-11-22T03:24:11.271Z,8.30
2022-11-22T03:26:38.300Z,9.40
2022-11-22T03:29:05.056Z,8.93
2022-11-22T03:31:31.844Z,8.50
2022-11-22T03:33:58.480Z,8.83
2022-11-22T03:36:25.161Z,8.00
2022-11-22T03:38:51.821Z,8.60
2022-11-22T03:41:18.473Z,8.60
2022-11-22T03:43:45.060Z,8.53
2022-11-22T03:46:16.219Z,9.27
2022-11-22T03:48:42.750Z,8.67
2022-11-22T03:51:09.340Z,8.67
2022-11-22T03:53:35.930Z,8.50
2022-11-22T03:56:02.544Z,9.03
2022-11-22T03:58:29.224Z,8.83
2022-11-22T04:00:59.470Z,8.60
2022-11-22T04:03:26.431Z,9.00
2022-11-22T04:05:53.005Z,9.10
2022-11-22T04:08:19.691Z,7.90
2022-11-22T04:10:49.057Z,9.40
2022-11-22T04:13:15.983Z,9.17
2022-11-22T04:15:42.540Z,8.70
2022-11-22T04:18:10.785Z,8.10
2022-11-22T04:20:56.649Z,9.10
2022-11-22T04:23:29.337Z,8.30
2022-11-22T04:25:58.966Z,8.80
2022-11-22T04:29:08.278Z,9.67
2022-11-22T04:31:30.944Z,8.60
2022-11-22T04:33:57.511Z,8.97
2022-11-22T04:36:24.183Z,7.70
2022-11-22T04:38:51.425Z,8.73
2022-11-22T04:41:18.151Z,7.97
2022-11-22T04:44:03.364Z,9.00
2022-11-22T04:46:31.450Z,8.77
2022-11-22T04:48:58.091Z,9.30
2022-11-22T04:51:43.272Z,8.97
2022-11-22T04:54:09.886Z,9.00
2022-11-22T04:56:36.536Z,8.57
2022-11-22T04:59:03.550Z,7.97
2022-11-22T05:01:30.317Z,8.47
2022-11-22T05:03:57.071Z,8.50
2022-11-22T05:06:23.741Z,8.47
2022-11-22T05:08:50.353Z,8.20
2022-11-22T05:11:19.512Z,8.77
2022-11-22T05:13:48.790Z,8.50
2022-11-22T05:16:18.568Z,8.90
2022-11-22T05:18:59.093Z,9.30
2022-11-22T05:21:27.715Z,8.40
2022-11-22T05:23:54.989Z,9.67
2022-11-22T05:26:26.775Z,8.17
2022-11-22T05:28:53.719Z,8.63
2022-11-22T05:31:25.364Z,8.83
2022-11-22T05:33:55.333Z,7.87
2022-11-22T05:36:22.783Z,7.50
2022-11-22T05:38:49.853Z,8.07
2022-11-22T05:41:17.086Z,8.07
2022-11-22T05:43:44.029Z,8.50
2022-11-22T05:46:24.415Z,7.70
2022-11-22T05:48:52.751Z,8.00
2022-11-22T05:51:21.455Z,7.90
2022-11-22T05:53:48.162Z,7.70
2022-11-22T05:56:22.947Z,8.20
2022-11-22T05:58:50.382Z,8.10
2022-11-22T06:01:19.488Z,7.43
2022-11-22T06:03:46.391Z,7.40
2022-11-22T06:06:13.482Z,7.13
2022-11-22T06:08:41.320Z,7.23
2022-11-22T06:11:09.623Z,6.90
2022-11-22T06:13:37.459Z,6.97
2022-11-22T06:16:05.049Z,7.20
2022-11-22T06:18:31.979Z,7.53
2022-11-22T06:21:04.669Z,7.13
2022-11-22T06:23:31.590Z,6.73
2022-11-22T06:25:59.760Z,6.67
2022-11-22T06:28:27.449Z,7.00
2022-11-22T06:30:54.049Z,6.83
2022-11-22T06:33:21.071Z,6.70
2022-11-22T06:35:47.733Z,6.70
2022-11-22T06:38:14.380Z,6.73
2022-11-22T06:40:41.320Z,6.63
2022-11-22T06:43:07.979Z,7.47
2022-11-22T06:45:34.563Z,6.57
2022-11-22T06:48:01.234Z,7.17
2022-11-22T06:50:27.848Z,6.60
2022-11-22T06:52:54.479Z,6.03
2022-11-22T06:55:49.004Z,6.13
2022-11-22T06:58:07.867Z,6.40
2022-11-22T07:00:34.453Z,6.80
2022-11-22T07:03:01.083Z,7.10
2022-11-22T07:05:27.755Z,6.13
2022-11-22T07:07:56.768Z,6.53
2022-11-22T07:10:27.816Z,6.13
2022-11-22T07:12:54.377Z,6.10
2022-11-22T07:15:28.404Z,6.23
2022-11-22T07:17:54.988Z,6.00
2022-11-22T07:20:21.613Z,6.07
2022-11-22T07:22:48.263Z,6.47
2022-11-22T07:25:14.948Z,6.10
2022-11-22T07:27:41.574Z,6.13
2022-11-22T07:30:08.885Z,6.40
2022-11-22T07:32:35.553Z,6.23
2022-11-22T07:35:09.407Z,6.83
2022-11-22T07:37:39.047Z,6.40
2022-11-22T07:40:06.380Z,7.03
2022-11-22T07:42:37.767Z,6.13
2022-11-22T07:45:07.944Z,6.63
2022-11-22T07:47:37.597Z,6.30
2022-11-22T07:50:06.820Z,6.40
2022-11-22T07:52:40.111Z,6.83
2022-11-22T07:55:12.535Z,6.57
2022-11-22T07:57:40.688Z,6.10
2022-11-22T08:00:07.898Z,5.70
2022-11-22T08:02:34.497Z,5.80
2022-11-22T08:05:01.923Z,6.03
2022-11-22T08:07:28.564Z,5.97
2022-11-22T08:09:55.248Z,6.70
2022-11-22T08:12:23.065Z,6.63
2022-11-22T08:14:52.623Z,6.80
2022-11-22T08:17:19.213Z,6.53
2022-11-22T08:19:45.979Z,5.80
2022-11-22T08:22:12.624Z,6.37
2022-11-22T08:24:45.861Z,6.30
2022-11-22T08:27:12.626Z,5.50
2022-11-22T08:29:39.243Z,6.37
2022-11-22T08:32:06.120Z,6.40
2022-11-22T08:34:32.706Z,6.23
2022-11-22T08:37:01.510Z,6.03
2022-11-22T08:39:28.278Z,7.00
2022-11-22T08:41:55.020Z,5.93
2022-11-22T08:44:21.738Z,6.47
2022-11-22T08:46:48.380Z,6.97
2022-11-22T08:49:16.993Z,6.80
2022-11-22T08:51:46.794Z,6.57
2022-11-22T08:54:17.264Z,6.60
2022-11-22T08:56:43.966Z,6.73
2022-11-22T08:59:12.693Z,6.60
2022-11-22T09:01:39.455Z,6.63
2022-11-22T09:04:06.139Z,6.67
2022-11-22T09:09:36.853Z,6.60
2022-11-22T09:12:04.834Z,5.73
2022-11-22T09:14:31.392Z,6.80
2022-11-22T09:16:58.116Z,6.77
2022-11-22T09:19:24.817Z,6.57
2022-11-22T09:21:51.449Z,6.00
2022-11-22T09:24:17.991Z,6.30
2022-11-22T09:26:44.674Z,6.33
2022-11-22T09:29:12.784Z,6.87
2022-11-22T09:31:46.792Z,6.80
2022-11-22T09:34:17.906Z,6.43
2022-11-22T09:36:52.050Z,6.33
2022-11-22T09:39:18.694Z,6.30
2022-11-22T09:41:48.394Z,6.70
2022-11-22T09:44:36.841Z,6.10
2022-11-22T09:47:28.370Z,6.00
2022-11-22T09:50:00.906Z,6.20
2022-11-22T09:52:32.713Z,5.93
2022-11-22T09:55:04.821Z,5.60
2022-11-22T09:57:38.584Z,5.60
2022-11-22T10:00:08.085Z,6.20
2022-11-22T10:03:01.085Z,6.10
2022-11-22T10:05:33.676Z,5.20
2022-11-22T10:08:19.034Z,4.90
2022-11-22T10:10:45.841Z,5.37
2022-11-22T10:13:24.247Z,6.60
2022-11-22T10:15:57.059Z,6.40
2022-11-22T10:18:34.610Z,4.63
2022-11-22T10:21:01.184Z,4.50
2022-11-22T10:23:27.797Z,5.83
2022-11-22T10:26:06.206Z,4.10
2022-11-22T10:28:36.930Z,4.40
2022-11-22T10:31:17.020Z,3.37
2022-11-22T10:34:03.475Z,3.23
2022-11-22T10:36:43.215Z,3.70
2022-11-22T10:39:38.016Z,3.77
2022-11-22T10:42:23.154Z,3.67
2022-11-22T10:45:01.964Z,5.03
2022-11-22T10:47:40.789Z,3.13
2022-11-22T10:50:17.948Z,4.60
2022-11-22T10:53:09.414Z,3.73
2022-11-22T10:55:54.826Z,3.20
2022-11-22T10:58:35.945Z,4.67
2022-11-22T11:01:11.889Z,19.97
2022-11-22T11:03:40.733Z,3.00
2022-11-22T11:06:24.363Z,3.40
2022-11-22T11:11:46.098Z,3.50
2022-11-22T11:14:30.556Z,2.43
2022-11-22T11:16:58.157Z,3.03
2022-11-22T11:19:25.606Z,3.20
2022-11-22T11:22:42.684Z,2.50
2022-11-22T11:25:31.604Z,2.57
2022-11-22T11:28:03.020Z,3.13
2022-11-22T11:30:47.397Z,2.70
2022-11-22T11:33:20.220Z,2.60
2022-11-22T11:35:47.462Z,2.67
2022-11-22T11:38:27.882Z,3.90
2022-11-22T11:40:54.501Z,3.87
2022-11-22T11:43:23.135Z,3.10
2022-11-22T11:45:49.952Z,2.80
2022-11-22T11:48:28.283Z,3.10
2022-11-22T11:51:18.067Z,3.00
2022-11-22T11:53:55.569Z,3.20
2022-11-22T11:56:34.839Z,2.57
2022-11-22T11:59:07.163Z,2.60
2022-11-22T12:01:38.729Z,3.03
2022-11-22T12:04:07.298Z,2.73
2022-11-22T12:06:34.197Z,2.67
2022-11-22T12:09:01.895Z,2.30
2022-11-22T12:11:43.073Z,2.50
2022-11-22T12:14:20.019Z,3.03
2022-11-22T12:16:48.242Z,2.60
2022-11-22T12:19:21.738Z,2.77
2022-11-22T12:22:03.862Z,2.73
2022-11-22T12:24:52.222Z,2.93
2022-11-22T12:27:22.118Z,3.20
2022-11-22T12:29:48.928Z,2.80
2022-11-22T12:32:32.695Z,2.90
2022-11-22T12:35:06.399Z,2.77
2022-11-22T12:37:44.857Z,2.90
2022-11-22T12:40:21.304Z,2.90
2022-11-22T12:42:50.726Z,2.77
2022-11-22T12:45:42.764Z,3.23
2022-11-22T12:48:16.700Z,2.53
2022-11-22T12:50:46.821Z,2.70
2022-11-22T12:53:16.127Z,3.17
2022-11-22T12:56:00.358Z,2.73
2022-11-22T12:58:45.244Z,2.90
2022-11-22T13:01:11.745Z,2.47
2022-11-22T13:04:24.582Z,2.50
2022-11-22T13:07:11.233Z,2.87
2022-11-22T13:09:42.000Z,2.50
2022-11-22T13:12:14.156Z,2.60
2022-11-22T13:14:55.369Z,2.83
2022-11-22T13:17:59.611Z,2.90
2022-11-22T13:21:01.403Z,2.50
2022-11-22T13:23:53.598Z,2.77
2022-11-22T13:26:48.729Z,2.33
2022-11-22T13:29:47.516Z,2.17
2022-11-22T13:32:42.154Z,2.70
2022-11-22T13:35:21.529Z,2.50
2022-11-22T13:38:28.772Z,2.60
2022-11-22T13:41:51.025Z,2.30
2022-11-22T13:44:41.103Z,2.17
2022-11-22T13:47:14.241Z,2.43
2022-11-22T13:49:48.873Z,2.40
2022-11-22T13:52:25.204Z,2.37
2022-11-22T13:55:42.139Z,2.37
2022-11-22T13:58:46.314Z,2.80
2022-11-22T14:01:45.188Z,2.63
2022-11-22T14:04:33.033Z,2.60
2022-11-22T14:07:33.427Z,2.63
2022-11-22T14:13:58.762Z,2.47
2022-11-22T14:17:12.589Z,2.40
2022-11-22T14:20:16.469Z,2.83
2022-11-22T14:23:34.801Z,2.60
2022-11-22T14:27:06.160Z,2.50
2022-11-22T14:30:25.136Z,2.50
2022-11-22T14:33:50.082Z,2.47
2022-11-22T14:36:39.818Z,2.37
2022-11-22T14:42:49.400Z,2.57
2022-11-22T14:49:02.992Z,2.60
2022-11-22T14:51:38.900Z,3.83
2022-11-22T14:55:15.416Z,2.70
2022-11-22T14:58:30.318Z,3.03
2022-11-22T15:09:20.998Z,2.57
2022-11-22T15:12:25.944Z,2.60
2022-11-22T15:58:06.143Z,2.20
2022-11-22T16:03:44.606Z,2.13
2022-11-22T16:06:24.014Z,2.87
2022-11-22T16:13:40.058Z,1.90
2022-11-22T16:17:21.446Z,1.80
2022-11-22T16:20:33.504Z,2.00
2022-11-22T16:23:09.736Z,2.10
2022-11-22T16:25:50.694Z,2.40
2022-11-22T16:28:38.905Z,2.50
2022-11-22T16:33:09.090Z,1.90
2022-11-22T16:34:47.022Z,2.10
2022-11-22T16:37:49.265Z,1.97
2022-11-22T16:40:21.978Z,2.03
2022-11-22T16:43:04.233Z,2.30
2022-11-22T16:45:43.463Z,2.07
2022-11-22T16:48:33.549Z,2.40
2022-11-22T16:51:25.585Z,1.90
2022-11-22T16:54:05.016Z,2.20
2022-11-22T16:56:53.087Z,2.40
2022-11-22T16:59:24.955Z,2.60
2022-11-22T17:02:03.555Z,2.23
2022-11-22T17:04:41.136Z,3.20
2022-11-22T17:10:19.015Z,2.50
2022-11-22T17:13:02.064Z,3.50
2022-11-22T17:19:45.659Z,5.93
2022-11-22T17:25:39.937Z,2.30
2022-11-22T17:28:31.714Z,3.10
2022-11-22T17:31:05.321Z,3.80
2022-11-22T17:33:38.683Z,2.93
2022-11-22T17:36:25.192Z,3.53
2022-11-22T17:39:06.602Z,3.80
2022-11-22T17:44:41.893Z,2.80
2022-11-22T17:47:51.239Z,3.97
2022-11-22T17:50:20.790Z,2.73
2022-11-22T17:52:56.088Z,2.33
2022-11-22T17:55:26.356Z,3.10
2022-11-22T17:58:15.835Z,2.50
2022-11-22T18:01:10.824Z,3.20
2022-11-22T18:03:38.635Z,3.10
2022-11-22T18:09:03.568Z,2.80
2022-11-22T18:11:33.547Z,2.70
2022-11-22T18:14:11.931Z,3.67
2022-11-22T18:19:32.860Z,2.50
2022-11-22T18:22:15.361Z,3.23
2022-11-22T18:24:58.284Z,2.70
2022-11-22T18:27:44.650Z,3.07
2022-11-22T18:30:15.345Z,3.20
2022-11-22T18:32:44.861Z,2.57
2022-11-22T18:35:29.178Z,2.30
2022-11-22T18:39:07.632Z,2.30
2022-11-22T18:44:35.585Z,2.83
2022-11-22T18:53:52.010Z,2.80
2022-11-22T18:56:27.484Z,2.30
2022-11-22T18:58:59.971Z,3.50
2022-11-22T19:01:39.405Z,2.30
2022-11-22T19:04:12.048Z,2.43
2022-11-22T19:12:49.971Z,2.30
2022-11-22T19:15:26.999Z,2.47
2022-11-22T19:18:10.937Z,2.80
2022-11-22T19:21:07.689Z,3.23
2022-11-22T19:23:39.585Z,3.20
2022-11-22T19:26:27.646Z,2.43
2022-11-22T19:29:06.766Z,2.93
2022-11-22T19:34:36.532Z,2.70
2022-11-22T19:40:51.162Z,2.80
2022-11-22T19:43:41.463Z,2.13
2022-11-22T19:46:08.160Z,2.50
2022-11-22T19:48:53.644Z,2.40
2022-11-22T19:51:33.520Z,2.70
2022-11-22T19:54:23.804Z,3.80
2022-11-22T19:57:06.143Z,2.17
2022-11-22T20:02:54.683Z,2.50
2022-11-22T20:05:26.997Z,2.90
2022-11-22T20:08:14.960Z,3.33
2022-11-22T20:11:06.971Z,2.50
2022-11-22T20:13:49.917Z,2.47
2022-11-22T20:20:19.192Z,2.50
2022-11-22T20:23:17.170Z,2.50
2022-11-22T20:25:48.269Z,2.10
2022-11-22T20:28:54.898Z,2.20
2022-11-22T20:31:34.548Z,2.40
2022-11-22T20:34:11.625Z,2.60
2022-11-22T20:36:39.139Z,2.50
2022-11-22T20:39:10.768Z,2.73
2022-11-22T20:41:41.706Z,2.30
2022-11-22T20:44:15.157Z,2.20
2022-11-22T20:47:11.938Z,5.30
2022-11-22T20:55:59.135Z,3.00
2022-11-22T20:58:37.179Z,4.07
2022-11-22T21:01:20.219Z,2.43
2022-11-22T21:04:01.778Z,2.40
2022-11-22T21:06:28.925Z,2.60
2022-11-22T21:12:24.492Z,2.10
2022-11-22T21:15:06.361Z,1.80
2022-11-22T21:18:23.642Z,2.60
2022-11-22T21:21:23.479Z,1.57
2022-11-22T21:24:32.420Z,1.80
2022-11-22T21:27:19.777Z,1.90
2022-11-22T21:33:21.701Z,1.93
2022-11-22T21:36:26.545Z,1.80
2022-11-22T21:39:00.775Z,2.20
2022-11-22T21:43:37.903Z,1.80
2022-11-22T21:45:40.222Z,2.10
2022-11-22T21:48:37.580Z,1.97
2022-11-22T22:01:35.114Z,2.00
2022-11-22T22:04:51.386Z,1.77
2022-11-22T22:07:53.453Z,1.83
2022-11-22T22:11:13.633Z,2.23
2022-11-22T22:13:50.410Z,1.80
2022-11-22T22:16:54.006Z,1.80
2022-11-22T22:19:23.896Z,1.90
2022-11-22T22:21:57.295Z,1.80
2022-11-22T22:27:44.759Z,2.47
2022-11-22T22:30:17.681Z,2.00
2022-11-22T22:33:11.465Z,2.30
2022-11-22T22:36:04.623Z,2.90
2022-11-22T22:44:30.111Z,1.80
2022-11-22T22:47:02.049Z,1.70
2022-11-22T22:50:12.214Z,2.20
2022-11-22T22:52:44.408Z,1.67
2022-11-22T22:58:55.191Z,1.90
2022-11-22T23:01:54.540Z,2.00
2022-11-22T23:04:24.548Z,2.30
2022-11-22T23:06:59.925Z,2.27
2022-11-22T23:16:37.724Z,1.80
2022-11-22T23:19:23.415Z,2.10
2022-11-22T23:22:03.510Z,2.10
2022-11-22T23:25:13.644Z,2.10
2022-11-22T23:34:03.930Z,1.90
2022-11-22T23:37:23.607Z,1.90
2022-11-22T23:40:01.658Z,2.17
2022-11-22T23:43:08.614Z,2.00
2022-11-22T23:49:10.115Z,2.10
2022-11-22T23:52:08.039Z,2.03
2022-11-22T23:54:50.968Z,1.80
2022-11-22T23:57:41.017Z,1.60
